LIPC

Cervia Air Force Base Airport

Cervia, Italy
TAF LIPC 221700Z 2218/2303 29005KT 9999 SCT030 TEMPO 2218/2303 3000 TSRA FEW020CB SCT030
Issued Valid From Valid To
Jul-22 @ 17:00 UTC
(3 hours ago)
Jul-22 @ 18:00 UTC
(2 hours ago)
Jul-23 @ 03:00 UTC
(in 7 hours)
Jul-22 @ 18:00 to Jul-23 @ 03:00
TAF LIPC 221700Z 2218/2303 29005KT 9999 SCT030
Wind Visibility Clouds
290° at 5 knots 10,000+ meters
  • Scattered at 3,000' AGL
Temporary Jul-22 @ 18:00 to Jul-23 @ 03:00
TEMPO 2218/2303 3000 TSRA FEW020CB SCT030
Visibility Clouds Conditions
2,993 meters
  • Few at 2,000' AGL
  • Scattered at 3,000' AGL
  • Thunderstorm
  • Rain
TAF LIPC 221700Z 2218/2303 29005KT 9999 SCT030 TEMPO 2218/2303 3000 TSRA FEW020CB SCT030
Issued Jul-22 @ 17:00 UTC
(3 hours ago)
Valid From Jul-22 @ 18:00 UTC
(2 hours ago)
Valid To Jul-23 @ 03:00 UTC
(in 7 hours)
Jul-22 @ 18:00 - Jul-23 @ 03:00
Wind Visibility
290° at 5 knots 10,000+ meters
Clouds
  • Scattered at 3,000' AGL
Temporary Jul-22 @ 18:00 - Jul-23 @ 03:00
Clouds
  • Few at 2,000' AGL
  • Scattered at 3,000' AGL
Conditions
  • Thunderstorm
  • Rain